Bowersville, Georgia
Current Conditions -  °F | °C
As of 9:55 AM on Sunday 23 Nov 2014 (Local Time) from KTOC Reporting Station
Heavy Rain Heavy Rain  
Wind Chill: 43°   Ceiling: 500
Heat Index: 47°   Visibility: 1.7mi
Dew Point: 47°   Wind: 8mph
Humidity: 97%   Direction: 60°ENE
Pressure: 30.12"   Gusts: NA
Location:  34.37°N, 83.08°W
Report Text: KTOC 231455Z AUTO 06007KT 1 3/4SM +RA OVC005 09/08 A3012 RMK AO2 T00850081
Loading
Personal Weather Stations






























Interactive Weather Map New forecast layout! Learn more

10-Day Weather Forecast

Advertisements
Track Severe Weather on mobile